createdAt,value
2023-05-13T00:00:43.671Z,9.309076
2023-05-13T00:01:43.640Z,9.309102
2023-05-13T00:02:44.653Z,9.309057
2023-05-13T00:03:43.821Z,9.309014
2023-05-13T00:04:43.920Z,9.309052
2023-05-13T00:06:15.702Z,9.309035
2023-05-13T00:06:43.527Z,9.309077
2023-05-13T00:07:43.678Z,9.309087
2023-05-13T00:08:43.588Z,9.309135
2023-05-13T00:09:43.650Z,9.309171
2023-05-13T00:10:43.838Z,9.309081
2023-05-13T00:11:43.536Z,9.309072
2023-05-13T00:12:43.453Z,9.309100
2023-05-13T00:13:43.668Z,9.309093
2023-05-13T00:15:15.564Z,9.309168
2023-05-13T00:15:43.475Z,9.309175
2023-05-13T00:16:43.732Z,9.309008
2023-05-13T00:17:43.825Z,9.308929
2023-05-13T00:18:43.586Z,9.309008
2023-05-13T00:19:43.455Z,9.309102
2023-05-13T00:20:43.517Z,9.309207
2023-05-13T00:21:43.519Z,9.309065
2023-05-13T00:22:43.478Z,9.309077
2023-05-13T00:23:43.345Z,9.308944
2023-05-13T00:24:44.509Z,9.308969
2023-05-13T00:25:43.450Z,9.309005
2023-05-13T00:26:43.400Z,9.308942
2023-05-13T00:27:43.466Z,9.308906
2023-05-13T00:28:43.312Z,9.308936
2023-05-13T00:29:43.330Z,9.308996
2023-05-13T00:30:43.301Z,9.308995
2023-05-13T00:31:43.768Z,9.309130
2023-05-13T00:32:43.423Z,9.309110
2023-05-13T00:33:43.333Z,9.308999
2023-05-13T00:34:43.397Z,9.308934
2023-05-13T00:35:43.334Z,9.308917
2023-05-13T00:36:43.482Z,9.308928
2023-05-13T00:37:43.370Z,9.308955
2023-05-13T00:38:43.378Z,9.309124
2023-05-13T00:39:43.356Z,9.309174
2023-05-13T00:40:43.431Z,9.309097
2023-05-13T00:41:43.359Z,9.309027
2023-05-13T00:42:43.710Z,9.308947
2023-05-13T00:43:43.338Z,9.308907
2023-05-13T00:44:43.312Z,9.308944
2023-05-13T00:45:43.429Z,9.308893
2023-05-13T00:46:43.366Z,9.308866
2023-05-13T00:47:43.978Z,9.308940
2023-05-13T00:48:43.398Z,9.308928
2023-05-13T00:49:43.290Z,9.309020
2023-05-13T00:50:43.278Z,9.308944
2023-05-13T00:51:43.309Z,9.308928
2023-05-13T00:52:43.270Z,9.308930
2023-05-13T00:53:43.571Z,9.308878
2023-05-13T00:54:43.285Z,9.308961
2023-05-13T00:55:43.216Z,9.309044
2023-05-13T00:56:43.188Z,9.309093
2023-05-13T00:57:43.138Z,9.308939
2023-05-13T00:58:43.135Z,9.308903
2023-05-13T00:59:43.099Z,9.308963
2023-05-13T01:00:43.237Z,9.309095
2023-05-13T01:01:43.216Z,9.309138
2023-05-13T01:02:43.190Z,9.309240
2023-05-13T01:03:43.095Z,9.309090
2023-05-13T01:04:43.205Z,9.309000
2023-05-13T01:05:43.220Z,9.308920
2023-05-13T01:06:43.188Z,9.308933
2023-05-13T01:07:43.429Z,9.308919
2023-05-13T01:08:43.154Z,9.309134
2023-05-13T01:09:43.229Z,9.309145
2023-05-13T01:10:43.110Z,9.309194
2023-05-13T01:11:43.217Z,9.309134
2023-05-13T01:12:43.121Z,9.309152
2023-05-13T01:13:43.099Z,9.309137
2023-05-13T01:14:43.187Z,9.309135
2023-05-13T01:15:43.156Z,9.309149
2023-05-13T01:16:43.165Z,9.309108
2023-05-13T01:17:43.101Z,9.309047
2023-05-13T01:18:43.434Z,9.309028
2023-05-13T01:19:43.067Z,9.309081
2023-05-13T01:20:43.095Z,9.309126
2023-05-13T01:21:43.072Z,9.309151
2023-05-13T01:22:43.036Z,9.309129
2023-05-13T01:23:43.074Z,9.309130
2023-05-13T01:24:43.119Z,9.309111
2023-05-13T01:25:42.969Z,9.309123
2023-05-13T01:26:42.967Z,9.309061
2023-05-13T01:27:42.920Z,9.309110
2023-05-13T01:28:42.909Z,9.309058
2023-05-13T01:29:42.886Z,9.309068
2023-05-13T01:30:42.881Z,9.309063
2023-05-13T01:31:43.018Z,9.309078
2023-05-13T01:32:43.003Z,9.309056
2023-05-13T01:33:42.883Z,9.309100
2023-05-13T01:34:42.858Z,9.309095
2023-05-13T01:35:42.832Z,9.309035
2023-05-13T01:36:42.823Z,9.309057
2023-05-13T01:37:42.938Z,9.309047
2023-05-13T01:38:42.844Z,9.309020
2023-05-13T01:39:42.984Z,9.309127
2023-05-13T01:40:42.924Z,9.309074
2023-05-13T01:41:42.956Z,9.309002
2023-05-13T01:42:42.959Z,9.309051
2023-05-13T01:43:42.914Z,9.309115
2023-05-13T01:44:42.888Z,9.309125
2023-05-13T01:45:42.911Z,9.309082
2023-05-13T01:46:42.959Z,9.309012
2023-05-13T01:47:42.910Z,9.308977
2023-05-13T01:48:43.572Z,9.309082
2023-05-13T01:49:42.826Z,9.309028
2023-05-13T01:50:42.870Z,9.309059
2023-05-13T01:51:42.864Z,9.309085
2023-05-13T01:52:42.889Z,9.309101
2023-05-13T01:53:42.916Z,9.309137
2023-05-13T01:54:42.824Z,9.309143
2023-05-13T01:55:42.862Z,9.309028
2023-05-13T01:56:42.792Z,9.309007
2023-05-13T01:57:42.790Z,9.308988
2023-05-13T01:58:42.774Z,9.309040
2023-05-13T01:59:43.103Z,9.308985
2023-05-13T02:00:42.756Z,9.309011
2023-05-13T02:01:42.833Z,9.308959
2023-05-13T02:02:42.901Z,9.309003
2023-05-13T02:03:42.793Z,9.309077
2023-05-13T02:04:42.779Z,9.309099
2023-05-13T02:05:42.659Z,9.308970
2023-05-13T02:06:42.651Z,9.308865
2023-05-13T02:07:42.624Z,9.308792
2023-05-13T02:08:42.644Z,9.308858
2023-05-13T02:09:42.621Z,9.308979
2023-05-13T02:10:42.701Z,9.308965
2023-05-13T02:11:42.592Z,9.308993
2023-05-13T02:12:42.569Z,9.308877
2023-05-13T02:13:42.585Z,9.309137
2023-05-13T02:14:42.623Z,9.309001
2023-05-13T02:15:42.636Z,9.309118
2023-05-13T02:16:42.615Z,9.309153
2023-05-13T02:17:42.629Z,9.309232
2023-05-13T02:18:42.609Z,9.309212
2023-05-13T02:19:42.547Z,9.309092
2023-05-13T02:20:42.552Z,9.309003
2023-05-13T02:21:42.678Z,9.309147
2023-05-13T02:22:42.630Z,9.309212
2023-05-13T02:23:42.628Z,9.309229
2023-05-13T02:24:42.670Z,9.309040
2023-05-13T02:25:42.602Z,9.309055
2023-05-13T02:26:42.627Z,9.308972
2023-05-13T02:27:42.582Z,9.309053
2023-05-13T02:28:42.871Z,9.308921
2023-05-13T02:29:42.583Z,9.308980
2023-05-13T02:30:42.548Z,9.308976
2023-05-13T02:31:42.637Z,9.308995
2023-05-13T02:32:42.707Z,9.309050
2023-05-13T02:33:42.546Z,9.309034
2023-05-13T02:34:42.521Z,9.309022
2023-05-13T02:35:42.528Z,9.308982
2023-05-13T02:36:42.518Z,9.308926
2023-05-13T02:37:42.583Z,9.309115
2023-05-13T02:38:42.579Z,9.309208
2023-05-13T02:39:42.794Z,9.309231
2023-05-13T02:40:42.523Z,9.309193
2023-05-13T02:41:42.561Z,9.309132
2023-05-13T02:42:42.528Z,9.309190
2023-05-13T02:43:42.526Z,9.309152
2023-05-13T02:44:42.462Z,9.309083
2023-05-13T02:45:42.510Z,9.309062
2023-05-13T02:46:42.481Z,9.309025
2023-05-13T02:47:42.457Z,9.309030
2023-05-13T02:48:42.855Z,9.309022
2023-05-13T02:49:42.456Z,9.309125
2023-05-13T02:50:42.681Z,9.309157
2023-05-13T02:51:42.421Z,9.309098
2023-05-13T02:52:42.420Z,9.309080
2023-05-13T02:53:42.432Z,9.309105
2023-05-13T02:54:42.497Z,9.309032
2023-05-13T02:55:42.442Z,9.309050
2023-05-13T02:56:42.388Z,9.308984
2023-05-13T02:57:42.395Z,9.308913
2023-05-13T02:58:42.390Z,9.308990
2023-05-13T02:59:42.442Z,9.309006
2023-05-13T03:00:42.375Z,9.309112
2023-05-13T03:01:42.621Z,9.309024
2023-05-13T03:02:43.498Z,9.309036
2023-05-13T03:03:42.376Z,9.309001
2023-05-13T03:04:42.221Z,9.308987
2023-05-13T03:05:42.312Z,9.309029
2023-05-13T03:06:42.435Z,9.309112
2023-05-13T03:07:43.283Z,9.309052
2023-05-13T03:08:42.235Z,9.308897
2023-05-13T03:09:42.409Z,9.308848
2023-05-13T03:10:42.329Z,9.308931
2023-05-13T03:11:42.292Z,9.309054
2023-05-13T03:12:42.186Z,9.309134
2023-05-13T03:13:42.253Z,9.309083
2023-05-13T03:14:42.555Z,9.308958
2023-05-13T03:15:44.445Z,9.308940
2023-05-13T03:16:43.311Z,9.309078
2023-05-13T03:17:42.250Z,9.308997
2023-05-13T03:18:42.290Z,9.309012
2023-05-13T03:19:42.228Z,9.309017
2023-05-13T03:20:42.285Z,9.309216
2023-05-13T03:21:42.277Z,9.308883
2023-05-13T03:22:42.211Z,9.308988
2023-05-13T03:23:42.233Z,9.309020
2023-05-13T03:24:42.181Z,9.309087
2023-05-13T03:25:42.543Z,9.309267
2023-05-13T03:26:42.158Z,9.309153
2023-05-13T03:27:42.256Z,9.309317
2023-05-13T03:28:43.172Z,9.309319
2023-05-13T03:29:42.195Z,9.309221
2023-05-13T03:30:42.150Z,9.309083
2023-05-13T03:31:42.210Z,9.309096
2023-05-13T03:32:42.227Z,9.308954
2023-05-13T03:33:42.111Z,9.308953
2023-05-13T03:34:42.165Z,9.308929
2023-05-13T03:35:42.134Z,9.309097
2023-05-13T03:36:42.456Z,9.309037
2023-05-13T03:37:42.109Z,9.309089
2023-05-13T03:38:42.192Z,9.309064
2023-05-13T03:39:42.077Z,9.309032
2023-05-13T03:40:42.083Z,9.309058
2023-05-13T03:41:42.089Z,9.308955
2023-05-13T03:42:42.100Z,9.309030
2023-05-13T03:43:42.044Z,9.309026
2023-05-13T03:44:41.993Z,9.308998
2023-05-13T03:45:41.954Z,9.309052
2023-05-13T03:46:42.134Z,9.309168
2023-05-13T03:47:42.007Z,9.309092
2023-05-13T03:48:59.792Z,9.309120
2023-05-13T03:49:41.922Z,9.309056
2023-05-13T03:50:41.921Z,9.309009
2023-05-13T03:51:41.870Z,9.308970
2023-05-13T03:52:43.121Z,9.309041
2023-05-13T03:53:41.922Z,9.309192
2023-05-13T03:54:42.052Z,9.309104
2023-05-13T03:55:41.966Z,9.309033
2023-05-13T03:56:42.038Z,9.309054
2023-05-13T03:57:41.971Z,9.309051
2023-05-13T03:58:42.001Z,9.309109
2023-05-13T03:59:42.001Z,9.309040
2023-05-13T04:00:41.902Z,9.309052
2023-05-13T04:01:46.701Z,9.309093
2023-05-13T04:02:42.126Z,9.309083
2023-05-13T04:03:41.933Z,9.309143
2023-05-13T04:04:42.298Z,9.309022
2023-05-13T04:05:41.891Z,9.309070
2023-05-13T04:06:41.902Z,9.309023
2023-05-13T04:07:41.955Z,9.309070
2023-05-13T04:08:41.868Z,9.309022
2023-05-13T04:09:42.935Z,9.309075
2023-05-13T04:10:41.932Z,9.309096
2023-05-13T04:11:41.937Z,9.309046
2023-05-13T04:12:41.778Z,9.309086
2023-05-13T04:13:41.947Z,9.308898
2023-05-13T04:14:41.867Z,9.309037
2023-05-13T04:15:41.895Z,9.309163
2023-05-13T04:16:42.171Z,9.309059
2023-05-13T04:17:41.906Z,9.309076
2023-05-13T04:18:41.741Z,9.309025
2023-05-13T04:19:41.694Z,9.309068
2023-05-13T04:20:41.809Z,9.309040
2023-05-13T04:21:41.693Z,9.309191
2023-05-13T04:22:41.722Z,9.309062
2023-05-13T04:23:41.714Z,9.308973
2023-05-13T04:24:41.698Z,9.309020
2023-05-13T04:25:41.664Z,9.308900
2023-05-13T04:26:41.743Z,9.308959
2023-05-13T04:27:41.619Z,9.308999
2023-05-13T04:28:41.718Z,9.309019
2023-05-13T04:29:41.642Z,9.309007
2023-05-13T04:30:41.651Z,9.308940
2023-05-13T04:31:41.803Z,9.308796
2023-05-13T04:32:41.804Z,9.309073
2023-05-13T04:33:41.974Z,9.309103
2023-05-13T04:34:41.745Z,9.309051
2023-05-13T04:35:41.746Z,9.309169
2023-05-13T04:36:41.717Z,9.309193
2023-05-13T04:37:41.708Z,9.309085
2023-05-13T04:38:41.664Z,9.309093
2023-05-13T04:39:41.646Z,9.308944
2023-05-13T04:40:41.675Z,9.309040
2023-05-13T04:41:41.681Z,9.309291
2023-05-13T04:42:41.694Z,9.309280
2023-05-13T04:43:41.635Z,9.308945
2023-05-13T04:44:41.886Z,9.308855
2023-05-13T04:45:41.644Z,9.308764
2023-05-13T04:46:41.652Z,9.308986
2023-05-13T04:47:41.640Z,9.309058
2023-05-13T04:48:41.680Z,9.309011
2023-05-13T04:49:41.575Z,9.309051
2023-05-13T04:50:41.616Z,9.309093
2023-05-13T04:51:41.611Z,9.308913
2023-05-13T04:52:41.574Z,9.309155
2023-05-13T04:53:41.972Z,9.309078
2023-05-13T04:54:41.558Z,9.309054
2023-05-13T04:55:41.883Z,9.308946
2023-05-13T04:56:41.565Z,9.309039
2023-05-13T04:57:41.589Z,9.309161
2023-05-13T04:58:41.559Z,9.309129
2023-05-13T04:59:41.554Z,9.309100
2023-05-13T05:00:41.515Z,9.309133
2023-05-13T05:01:41.522Z,9.309125
2023-05-13T05:02:41.457Z,9.309114
2023-05-13T05:03:41.382Z,9.309141
2023-05-13T05:04:41.441Z,9.309111
2023-05-13T05:05:41.371Z,9.309075
2023-05-13T05:06:41.400Z,9.309109
2023-05-13T05:07:41.336Z,9.309130
2023-05-13T05:08:41.346Z,9.309142
2023-05-13T05:09:42.423Z,9.309176
2023-05-13T05:10:41.353Z,9.309066
2023-05-13T05:12:00.400Z,9.309086
2023-05-13T05:12:41.354Z,9.309160
2023-05-13T05:13:41.421Z,9.309145
2023-05-13T05:14:41.712Z,9.309054
2023-05-13T05:15:41.406Z,9.309130
2023-05-13T05:17:02.493Z,9.309088
2023-05-13T05:17:41.405Z,9.309139
2023-05-13T05:18:41.460Z,9.309100
2023-05-13T05:19:41.297Z,9.309137
2023-05-13T05:20:41.323Z,9.309090
2023-05-13T05:21:41.278Z,9.309123
2023-05-13T05:22:41.288Z,9.309155
2023-05-13T05:23:41.266Z,9.309117
2023-05-13T05:24:41.310Z,9.309136
2023-05-13T05:25:41.262Z,9.309119
2023-05-13T05:26:42.854Z,9.309148
2023-05-13T05:27:41.251Z,9.309155
2023-05-13T05:28:41.218Z,9.309282
2023-05-13T05:29:41.226Z,9.309280
2023-05-13T05:30:41.272Z,9.309313
2023-05-13T05:31:41.379Z,9.309203
2023-05-13T05:32:41.234Z,9.309188
2023-05-13T05:33:41.207Z,9.309192
2023-05-13T05:34:41.214Z,9.309199
2023-05-13T05:35:41.176Z,9.309174
2023-05-13T05:36:41.213Z,9.309205
2023-05-13T05:37:41.213Z,9.309190
2023-05-13T05:38:41.129Z,9.309140
2023-05-13T05:39:41.177Z,9.309221
2023-05-13T05:40:41.147Z,9.309132
2023-05-13T05:41:41.113Z,9.309147
2023-05-13T05:42:41.228Z,9.309187
2023-05-13T05:43:41.164Z,9.309185
2023-05-13T05:44:41.139Z,9.309145
2023-05-13T05:45:41.115Z,9.309109
2023-05-13T05:46:41.101Z,9.309173
2023-05-13T05:47:41.148Z,9.309140
2023-05-13T05:48:41.110Z,9.309040
2023-05-13T05:49:41.061Z,9.308795
2023-05-13T05:50:41.067Z,9.308958
2023-05-13T05:51:41.026Z,9.309086
2023-05-13T05:52:41.026Z,9.308991
2023-05-13T05:53:41.171Z,9.309022
2023-05-13T05:54:41.053Z,9.308989
2023-05-13T05:55:41.013Z,9.308885
2023-05-13T05:56:41.055Z,9.309062
2023-05-13T05:57:41.022Z,9.309074
2023-05-13T05:58:41.010Z,9.309033
2023-05-13T05:59:41.389Z,9.309028
2023-05-13T06:00:40.965Z,9.309069
2023-05-13T06:01:46.719Z,9.309126
2023-05-13T06:02:42.050Z,9.309113
2023-05-13T06:03:41.060Z,9.309096
2023-05-13T06:04:41.106Z,9.309108
2023-05-13T06:05:40.949Z,9.309116
2023-05-13T06:06:40.983Z,9.309120
2023-05-13T06:07:41.983Z,9.309126
2023-05-13T06:08:40.985Z,9.309106
2023-05-13T06:09:40.990Z,9.309069
2023-05-13T06:10:42.070Z,9.309077
2023-05-13T06:11:40.864Z,9.309113
2023-05-13T06:12:40.880Z,9.309123
2023-05-13T06:13:40.886Z,9.309110
2023-05-13T06:14:40.893Z,9.309105
2023-05-13T06:15:40.933Z,9.309132
2023-05-13T06:16:40.891Z,9.309106
2023-05-13T06:17:40.907Z,9.309091
2023-05-13T06:18:40.895Z,9.309080
2023-05-13T06:19:40.901Z,9.309116
2023-05-13T06:20:40.858Z,9.309119
2023-05-13T06:21:40.848Z,9.309093
2023-05-13T06:22:40.848Z,9.309070
2023-05-13T06:23:40.788Z,9.309075
2023-05-13T06:24:40.898Z,9.309121
2023-05-13T06:25:40.862Z,9.309097
2023-05-13T06:26:40.898Z,9.309098
2023-05-13T06:27:40.812Z,9.309088
2023-05-13T06:28:40.864Z,9.309065
2023-05-13T06:29:40.816Z,9.309096
2023-05-13T06:30:40.790Z,9.309089
2023-05-13T06:31:40.920Z,9.309095
2023-05-13T06:32:44.933Z,9.309121
2023-05-13T06:33:42.790Z,9.309044
2023-05-13T06:34:40.775Z,9.309101
2023-05-13T06:35:40.732Z,9.309080
2023-05-13T06:36:40.769Z,9.309085
2023-05-13T06:37:40.771Z,9.309125
2023-05-13T06:38:40.728Z,9.309073
2023-05-13T06:39:40.706Z,9.309085
2023-05-13T06:40:40.701Z,9.309130
2023-05-13T06:41:40.729Z,9.309117
2023-05-13T06:42:40.768Z,9.309086
2023-05-13T06:43:40.729Z,9.309089
2023-05-13T06:44:40.711Z,9.309040
2023-05-13T06:45:40.682Z,9.309192
2023-05-13T06:46:40.755Z,9.309052
2023-05-13T06:47:40.725Z,9.309037
2023-05-13T06:48:40.696Z,9.309002
2023-05-13T06:49:40.657Z,9.308971
2023-05-13T06:50:40.615Z,9.309051
2023-05-13T06:51:40.662Z,9.309029
2023-05-13T06:52:41.976Z,9.309068
2023-05-13T06:53:41.658Z,9.309088
2023-05-13T06:54:40.610Z,9.309019
2023-05-13T06:55:40.613Z,9.308996
2023-05-13T06:56:40.658Z,9.309056
2023-05-13T06:57:43.426Z,9.308997
2023-05-13T06:58:41.617Z,9.308994
2023-05-13T06:59:40.623Z,9.308948
2023-05-13T07:00:40.651Z,9.309014
2023-05-13T07:01:40.576Z,9.309015
2023-05-13T07:02:56.484Z,9.308984
2023-05-13T07:03:41.632Z,9.308998
2023-05-13T07:04:41.813Z,9.309040
2023-05-13T07:05:40.534Z,9.309051
2023-05-13T07:06:40.546Z,9.309118
2023-05-13T07:07:40.536Z,9.309030
2023-05-13T07:08:45.425Z,9.309032
2023-05-13T07:09:41.585Z,9.309025
2023-05-13T07:10:40.524Z,9.309082
2023-05-13T07:11:40.492Z,9.309103
2023-05-13T07:12:40.583Z,9.309109
2023-05-13T07:13:40.498Z,9.309092
2023-05-13T07:14:45.242Z,9.309052
2023-05-13T07:15:49.237Z,9.309084
2023-05-13T07:16:41.557Z,9.309050
2023-05-13T07:17:40.508Z,9.309037
2023-05-13T07:18:40.449Z,9.309051
2023-05-13T07:19:52.531Z,9.309078
2023-05-13T07:20:41.489Z,9.309055
2023-05-13T07:21:40.421Z,9.309044
2023-05-13T07:22:40.440Z,9.309033
2023-05-13T07:23:40.921Z,9.309058
2023-05-13T07:24:40.444Z,9.309108
2023-05-13T07:25:40.460Z,9.309072
2023-05-13T07:26:40.436Z,9.309088
2023-05-13T07:27:40.455Z,9.309053
2023-05-13T07:28:40.407Z,9.309037
2023-05-13T07:29:40.402Z,9.309044
2023-05-13T07:30:40.387Z,9.309120
2023-05-13T07:31:40.425Z,9.309182
2023-05-13T07:32:40.530Z,9.309134
2023-05-13T07:33:40.374Z,9.309123
2023-05-13T07:34:40.353Z,9.309094
2023-05-13T07:35:40.324Z,9.309129
2023-05-13T07:36:40.338Z,9.309114
2023-05-13T07:37:40.385Z,9.309087
2023-05-13T07:38:40.297Z,9.309114
2023-05-13T07:39:40.293Z,9.309125
2023-05-13T07:40:40.455Z,9.309149
2023-05-13T07:41:40.289Z,9.309142
2023-05-13T07:42:40.421Z,9.309115
2023-05-13T07:43:40.343Z,9.309107
2023-05-13T07:44:40.284Z,9.309139
2023-05-13T07:45:40.247Z,9.309130
2023-05-13T07:46:47.912Z,9.309153
2023-05-13T07:47:41.564Z,9.309151
2023-05-13T07:48:40.319Z,9.309143
2023-05-13T07:49:40.221Z,9.309118
2023-05-13T07:50:40.300Z,9.309150
2023-05-13T07:51:40.247Z,9.309103
2023-05-13T07:52:40.237Z,9.309098
2023-05-13T07:53:40.226Z,9.309120
2023-05-13T07:54:40.255Z,9.309112
2023-05-13T07:55:40.178Z,9.309109
2023-05-13T07:56:40.177Z,9.309096
2023-05-13T07:57:41.252Z,9.309095
2023-05-13T07:58:40.151Z,9.309105
2023-05-13T07:59:40.575Z,9.309097
2023-05-13T08:00:40.222Z,9.309176
2023-05-13T08:01:40.161Z,9.309157
2023-05-13T08:02:40.299Z,9.309230
2023-05-13T08:03:40.369Z,9.309167
2023-05-13T08:04:41.275Z,9.309141
2023-05-13T08:05:40.138Z,9.309103
2023-05-13T08:06:40.265Z,9.309134
2023-05-13T08:07:40.392Z,9.309102
2023-05-13T08:08:40.702Z,9.309125
2023-05-13T08:09:40.745Z,9.309107
2023-05-13T08:10:40.123Z,9.309117
2023-05-13T08:11:40.304Z,9.309175
2023-05-13T08:12:40.180Z,9.309135
2023-05-13T08:13:40.170Z,9.309092
2023-05-13T08:14:40.106Z,9.309153
2023-05-13T08:15:40.350Z,9.309093
2023-05-13T08:16:40.175Z,9.309143
2023-05-13T08:17:40.187Z,9.309052
2023-05-13T08:18:40.169Z,9.309113
2023-05-13T08:19:40.203Z,9.309217
2023-05-13T08:20:40.064Z,9.309306
2023-05-13T08:21:40.010Z,9.309360
2023-05-13T08:22:40.014Z,9.309258
2023-05-13T08:23:45.500Z,9.309284
2023-05-13T08:24:41.968Z,9.309204
2023-05-13T08:25:39.976Z,9.309235
2023-05-13T08:26:40.133Z,9.309151
2023-05-13T08:27:39.954Z,9.309124
2023-05-13T08:28:40.009Z,9.309132
2023-05-13T08:29:40.016Z,9.309073
2023-05-13T08:30:39.961Z,9.309121
2023-05-13T08:31:40.390Z,9.309190
2023-05-13T08:32:41.046Z,9.309302
2023-05-13T08:33:39.961Z,9.309255
2023-05-13T08:34:39.948Z,9.309155
2023-05-13T08:35:39.938Z,9.308982
2023-05-13T08:36:39.934Z,9.309061
2023-05-13T08:37:40.014Z,9.309095
2023-05-13T08:38:39.893Z,9.309043
2023-05-13T08:39:39.966Z,9.309110
2023-05-13T08:40:39.887Z,9.309012
2023-05-13T08:41:39.888Z,9.309065
2023-05-13T08:42:40.098Z,9.309119
2023-05-13T08:43:39.908Z,9.309122
2023-05-13T08:44:39.897Z,9.309110
2023-05-13T08:45:39.900Z,9.309041
2023-05-13T08:46:39.988Z,9.309091
2023-05-13T08:47:39.918Z,9.309133
2023-05-13T08:48:39.888Z,9.309205
2023-05-13T08:49:39.848Z,9.309130
2023-05-13T08:50:39.811Z,9.309115
2023-05-13T08:51:39.826Z,9.309113
2023-05-13T08:52:39.829Z,9.309072
2023-05-13T08:53:39.866Z,9.309108
2023-05-13T08:54:39.812Z,9.309131
2023-05-13T08:55:39.756Z,9.309155
2023-05-13T08:56:39.825Z,9.309114
2023-05-13T08:57:39.806Z,9.309097
2023-05-13T08:58:39.869Z,9.309103
2023-05-13T08:59:39.782Z,9.309087
2023-05-13T09:00:39.788Z,9.309090
2023-05-13T09:01:39.849Z,9.309047
2023-05-13T09:02:39.757Z,9.309081
2023-05-13T09:03:39.737Z,9.309097
2023-05-13T09:04:39.799Z,9.309061
2023-05-13T09:05:39.902Z,9.309070
2023-05-13T09:06:39.829Z,9.309064
2023-05-13T09:07:39.704Z,9.309114
2023-05-13T09:08:39.769Z,9.309081
2023-05-13T09:09:39.687Z,9.309088
2023-05-13T09:10:40.173Z,9.309114
2023-05-13T09:11:40.299Z,9.309148
2023-05-13T09:12:39.818Z,9.309114
2023-05-13T09:13:39.978Z,9.309117
2023-05-13T09:14:39.894Z,9.309156
2023-05-13T09:15:39.761Z,9.309114
2023-05-13T09:16:39.851Z,9.309119
2023-05-13T09:17:39.649Z,9.309223
2023-05-13T09:18:39.736Z,9.309139
2023-05-13T09:19:39.815Z,9.309145
2023-05-13T09:20:39.614Z,9.309142
2023-05-13T09:21:39.618Z,9.309133
2023-05-13T09:22:39.619Z,9.309166
2023-05-13T09:23:39.700Z,9.309160
2023-05-13T09:24:39.615Z,9.309171
2023-05-13T09:25:39.776Z,9.309137
2023-05-13T09:26:39.663Z,9.309102
2023-05-13T09:27:39.571Z,9.309060
2023-05-13T09:28:39.802Z,9.309117
2023-05-13T09:29:39.606Z,9.309105
2023-05-13T09:30:39.589Z,9.309225
2023-05-13T09:31:39.632Z,9.309038
2023-05-13T09:32:39.632Z,9.309037
2023-05-13T09:33:41.180Z,9.309017
2023-05-13T09:34:39.579Z,9.309088
2023-05-13T09:35:39.674Z,9.309142
2023-05-13T09:36:39.492Z,9.309062
2023-05-13T09:37:39.652Z,9.309100
2023-05-13T09:38:42.390Z,9.309064
2023-05-13T09:39:39.501Z,9.309145
2023-05-13T09:40:39.534Z,9.309061
2023-05-13T09:41:39.450Z,9.309036
2023-05-13T09:42:39.436Z,9.309032
2023-05-13T09:43:39.539Z,9.308962
2023-05-13T09:44:39.443Z,9.308960
2023-05-13T09:45:39.447Z,9.309045
2023-05-13T09:46:39.484Z,9.309060
2023-05-13T09:47:39.429Z,9.309064
2023-05-13T09:48:40.820Z,9.309054
2023-05-13T09:49:39.519Z,9.309060
2023-05-13T09:50:39.384Z,9.309080
2023-05-13T09:51:39.443Z,9.309072
2023-05-13T09:52:39.409Z,9.309031
2023-05-13T09:53:39.429Z,9.309028
2023-05-13T09:54:39.415Z,9.309048
2023-05-13T09:55:39.398Z,9.309061
2023-05-13T09:56:39.388Z,9.309058
2023-05-13T09:57:39.377Z,9.309031
2023-05-13T09:58:39.416Z,9.308990
2023-05-13T09:59:39.387Z,9.309034
2023-05-13T10:00:39.518Z,9.309061
2023-05-13T10:01:39.591Z,9.309026
2023-05-13T10:02:39.566Z,9.309153
2023-05-13T10:03:39.609Z,9.308932
2023-05-13T10:04:39.338Z,9.309064
2023-05-13T10:05:39.422Z,9.309011
2023-05-13T10:06:39.333Z,9.309068
2023-05-13T10:07:39.366Z,9.309057
2023-05-13T10:08:39.381Z,9.309028
2023-05-13T10:09:39.271Z,9.309027
2023-05-13T10:10:39.741Z,9.309041
2023-05-13T10:11:40.291Z,9.309052
2023-05-13T10:12:39.380Z,9.309041
2023-05-13T10:13:39.252Z,9.309071
2023-05-13T10:14:39.272Z,9.309083
2023-05-13T10:15:39.265Z,9.309067
2023-05-13T10:16:39.302Z,9.309071
2023-05-13T10:17:39.295Z,9.309071
2023-05-13T10:18:39.310Z,9.309076
2023-05-13T10:19:39.195Z,9.309071
2023-05-13T10:20:39.220Z,9.309033
2023-05-13T10:21:39.267Z,9.309030
2023-05-13T10:22:39.141Z,9.309085
2023-05-13T10:23:39.168Z,9.309050
2023-05-13T10:24:39.175Z,9.309031
2023-05-13T10:25:39.179Z,9.309092
2023-05-13T10:26:39.120Z,9.309031
2023-05-13T10:27:39.149Z,9.309001
2023-05-13T10:28:39.122Z,9.308984
2023-05-13T10:29:39.162Z,9.308971
2023-05-13T10:30:39.101Z,9.309015
2023-05-13T10:31:39.192Z,9.309050
2023-05-13T10:32:39.362Z,9.308999
2023-05-13T10:33:39.087Z,9.309028
2023-05-13T10:34:39.246Z,9.309048
2023-05-13T10:35:41.911Z,9.308984
2023-05-13T10:36:39.132Z,9.308974
2023-05-13T10:37:39.102Z,9.308990
2023-05-13T10:38:39.208Z,9.308997
2023-05-13T10:39:39.131Z,9.309005
2023-05-13T10:40:39.079Z,9.309011
2023-05-13T10:41:39.051Z,9.308985
2023-05-13T10:42:39.035Z,9.308965
2023-05-13T10:43:39.106Z,9.308990
2023-05-13T10:44:39.012Z,9.309048
2023-05-13T10:45:39.157Z,9.309064
2023-05-13T10:46:39.150Z,9.309045
2023-05-13T10:47:39.144Z,9.309060
2023-05-13T10:48:39.116Z,9.309076
2023-05-13T10:49:40.700Z,9.309046
2023-05-13T10:50:39.037Z,9.309024
2023-05-13T10:51:39.021Z,9.309027
2023-05-13T10:52:39.524Z,9.309002
2023-05-13T10:53:39.073Z,9.308998
2023-05-13T10:54:39.135Z,9.309014
2023-05-13T10:55:39.042Z,9.308996
2023-05-13T10:56:39.117Z,9.308991
2023-05-13T10:57:38.965Z,9.309004
2023-05-13T10:58:38.983Z,9.309029
2023-05-13T10:59:39.673Z,9.308959
2023-05-13T11:00:38.986Z,9.308885
2023-05-13T11:01:39.333Z,9.308928
2023-05-13T11:02:39.606Z,9.309006
2023-05-13T11:03:39.575Z,9.309112
2023-05-13T11:04:39.377Z,9.309100
2023-05-13T11:05:39.780Z,9.309052
2023-05-13T11:06:39.647Z,9.309032
2023-05-13T11:07:40.564Z,9.309031
2023-05-13T11:08:39.641Z,9.309022
2023-05-13T11:09:39.436Z,9.309058
2023-05-13T11:10:40.798Z,9.309007
2023-05-13T11:11:38.970Z,9.309078
2023-05-13T11:12:39.299Z,9.309105
2023-05-13T11:13:39.013Z,9.309108
2023-05-13T11:14:39.324Z,9.309155
2023-05-13T11:15:39.001Z,9.309023
2023-05-13T11:16:39.274Z,9.309061
2023-05-13T11:17:39.491Z,9.309091
2023-05-13T11:18:39.048Z,9.309123
2023-05-13T11:19:39.134Z,9.309082
2023-05-13T11:20:51.691Z,9.309133
2023-05-13T11:21:41.411Z,9.309098
2023-05-13T11:22:39.252Z,9.309057
2023-05-13T11:23:39.422Z,9.309043
2023-05-13T11:24:39.038Z,9.309002
2023-05-13T11:25:39.165Z,9.309016
2023-05-13T11:26:39.628Z,9.309019
2023-05-13T11:27:39.103Z,9.309035
2023-05-13T11:28:38.747Z,9.309067
2023-05-13T11:29:39.369Z,9.309054
2023-05-13T11:30:38.854Z,9.309089
2023-05-13T11:31:38.840Z,9.309077
2023-05-13T11:32:39.551Z,9.308976
2023-05-13T11:33:39.330Z,9.309037
2023-05-13T11:34:38.854Z,9.309084
2023-05-13T11:35:39.080Z,9.309046
2023-05-13T11:36:39.246Z,9.309068
2023-05-13T11:37:39.438Z,9.309097
2023-05-13T11:38:39.246Z,9.309102
2023-05-13T11:39:38.806Z,9.309069
2023-05-13T11:40:39.284Z,9.309118
2023-05-13T11:41:39.386Z,9.309200
2023-05-13T11:42:39.125Z,9.309077
2023-05-13T11:43:39.567Z,9.309113
2023-05-13T11:44:39.331Z,9.309124